Flugplatz Weimar-Umpferstedt

Für EDOU sind keine METAR/TAF Berichte vorhanden.
Es werden die Flugwettermeldungen vom Flugplatz Erfurt in 30 km Entfernung angezeigt.

Bericht für EDDE

vom 28.02. um 02:50 UTC

Wind 11 kt aus 270°

Sichtweite 10 km oder mehr

schwacher Schnee

aufgebrochene Bewölkung in 600 ft

aufgebrochene Bewölkung in 3300 ft

Temperatur 0.0°C

Taupunkt 0.0°C

Luftfeuchtigkeit 100%

Luftdruck 1008 hPa

EDDE 280250Z 27011KT 9999 -SN BKN006 BKN033 00/M00 Q1008

Prognose für EDDE

vom 27.02. um 00:00 UTC

Zwischen 00:00 UTC und 00:00 UTC

Wind 9 kt aus 320°

Sichtweite 4500 m

schwacher Schnee

aufgebrochene Bewölkung in 3500 ft


Zwischen 00:00 UTC und 00:00 UTC zeitweise mit einer Wahrscheinlichkeit von 40%

Sichtweite 2500 m

Schnee

aufgebrochene Bewölkung in 300 ft


Zwischen 00:00 und 00:00 UTC übergehend zu

Wind 13 kt aus 260°

Sichtweite 10 km oder mehr

schwacher Schnee

aufgebrochene Bewölkung in 3500 ft


Zwischen 00:00 und 00:00 UTC übergehend zu

Wind 11 kt aus 200°

Sichtweite 10 km oder mehr

schwacher Schnee

aufgebrochene Bewölkung in 3500 ft

TAF EDDE 272300Z 2800/2824 32009KT 4500 -SN BKN035 PROB40 TEMPO 2800/2806 2500 SN BKN003 BECMG 2804/2806 26013KT 9999 BECMG 2815/2817 20011KT
Impressum